Time;durP1;ratioP1;P1;durP2;ratioP2;P2;SDS_P1;SDS_P2;PMS_P1;PMS_P2;Temp;Humidity;BMP_temperature;BMP_pressure;BME280_temperature;BME280_humidity;BME280_pressure;Samples;Min_cycle;Max_cycle;Signal;HPM_P1;HPM_P2
2023/03/01 00:02:22;;;;;;;10.23;8.85;;;4.00;99.90;;;;;;5048721;28;20316;-78
2023/03/01 00:04:49;;;;;;;10.50;9.50;;;3.90;99.90;;;;;;5045574;28;20709;-78
2023/03/01 00:07:18;;;;;;;11.48;9.75;;;3.90;99.90;;;;;;5049023;28;20195;-77
2023/03/01 00:09:45;;;;;;;11.00;9.88;;;3.90;99.90;;;;;;5052201;28;20187;-76
2023/03/01 00:12:12;;;;;;;9.90;8.82;;;3.90;99.90;;;;;;5059487;28;20191;-78
2023/03/01 00:14:40;;;;;;;10.65;9.15;;;3.90;99.90;;;;;;5049756;28;20269;-78
2023/03/01 00:17:08;;;;;;;10.35;9.35;;;3.90;99.90;;;;;;5047471;28;20872;-75
2023/03/01 00:19:35;;;;;;;9.73;8.82;;;3.90;99.90;;;;;;5046776;28;20250;-78
2023/03/01 00:22:03;;;;;;;10.20;9.25;;;3.90;99.90;;;;;;5047959;28;20647;-78
2023/03/01 00:24:30;;;;;;;10.15;8.90;;;3.80;99.90;;;;;;5044858;28;20899;-77
2023/03/01 00:26:57;;;;;;;10.18;9.18;;;3.80;99.90;;;;;;5046063;28;20704;-78
2023/03/01 00:29:25;;;;;;;11.18;10.07;;;3.80;99.90;;;;;;5048852;28;20843;-78
2023/03/01 00:31:52;;;;;;;9.68;8.75;;;3.80;99.90;;;;;;5047390;28;20681;-78
2023/03/01 00:34:21;;;;;;;9.48;8.57;;;3.80;99.90;;;;;;5048018;28;20732;-78
2023/03/01 00:36:48;;;;;;;10.05;9.15;;;3.80;99.90;;;;;;5044768;28;20227;-77
2023/03/01 00:39:16;;;;;;;9.95;9.00;;;3.80;99.90;;;;;;5042462;28;20230;-78
2023/03/01 00:41:44;;;;;;;11.43;10.23;;;3.70;99.90;;;;;;5046471;28;20241;-78
2023/03/01 00:44:11;;;;;;;10.48;9.57;;;3.70;99.90;;;;;;5044617;28;20209;-77
2023/03/01 00:46:38;;;;;;;9.63;8.63;;;3.70;99.90;;;;;;5045969;28;20247;-76
2023/03/01 00:49:05;;;;;;;9.30;8.40;;;3.70;99.90;;;;;;5056363;28;20186;-77
2023/03/01 00:51:34;;;;;;;10.15;8.90;;;3.70;99.90;;;;;;5064874;28;20254;-77
2023/03/01 00:54:03;;;;;;;10.40;9.30;;;3.70;99.90;;;;;;5052294;28;20211;-77
2023/03/01 00:56:31;;;;;;;9.18;8.35;;;3.70;99.90;;;;;;5058710;28;20218;-76
2023/03/01 00:58:58;;;;;;;8.82;7.95;;;3.70;99.90;;;;;;5046802;28;20195;-78
2023/03/01 01:01:30;;;;;;;9.93;8.93;;;3.70;99.90;;;;;;5048837;28;20196;-78
2023/03/01 01:03:59;;;;;;;9.52;8.52;;;3.70;99.90;;;;;;5045485;28;20195;-77
2023/03/01 01:06:28;;;;;;;9.23;8.32;;;3.70;99.90;;;;;;5049641;28;20242;-78
2023/03/01 01:08:56;;;;;;;8.90;8.10;;;3.70;99.90;;;;;;5046984;28;20238;-78
2023/03/01 01:11:25;;;;;;;9.27;8.38;;;3.60;99.90;;;;;;5044750;28;20199;-79
2023/03/01 01:13:53;;;;;;;8.65;7.85;;;3.60;99.90;;;;;;5045766;28;20207;-78
2023/03/01 01:16:21;;;;;;;9.10;8.20;;;3.60;99.90;;;;;;5042595;28;20994;-80
2023/03/01 01:18:48;;;;;;;9.15;8.25;;;3.60;99.90;;;;;;5044098;28;20330;-76
2023/03/01 01:21:18;;;;;;;8.82;7.95;;;3.60;99.90;;;;;;5047455;28;20223;-78
2023/03/01 01:23:46;;;;;;;8.32;7.53;;;3.60;99.90;;;;;;5042164;28;20214;-78
2023/03/01 01:26:16;;;;;;;8.90;8.05;;;3.60;99.90;;;;;;5045881;28;20219;-77
2023/03/01 01:28:43;;;;;;;7.57;6.88;;;3.60;99.90;;;;;;5047942;28;20568;-78
2023/03/01 01:31:10;;;;;;;7.85;7.15;;;3.60;99.90;;;;;;5047086;28;20207;-78
2023/03/01 01:33:38;;;;;;;8.32;7.07;;;3.60;99.90;;;;;;5042665;28;20277;-78
2023/03/01 01:36:06;;;;;;;6.20;5.60;;;3.50;99.90;;;;;;5042237;28;20600;-77
2023/03/01 01:38:33;;;;;;;7.13;6.45;;;3.50;99.90;;;;;;5048119;28;20221;-76
2023/03/01 01:41:00;;;;;;;6.78;6.20;;;3.40;99.90;;;;;;5045499;28;20191;-78
2023/03/01 01:43:30;;;;;;;7.28;6.28;;;3.40;99.90;;;;;;5068243;22;20722;-67
2023/03/01 01:46:01;;;;;;;6.25;5.65;;;3.40;99.90;;;;;;5042497;28;20279;-66
2023/03/01 01:48:40;;;;;;;6.47;5.88;;;3.40;99.90;;;;;;5043123;28;20259;-67
2023/03/01 01:51:11;;;;;;;6.45;5.95;;;3.40;99.90;;;;;;5041423;28;20553;-67
2023/03/01 01:53:39;;;;;;;7.15;6.45;;;3.30;99.90;;;;;;5041418;28;20298;-67
2023/03/01 01:56:09;;;;;;;6.72;6.13;;;3.30;99.90;;;;;;5040915;28;20225;-67
2023/03/01 01:58:39;;;;;;;6.85;6.25;;;3.30;99.90;;;;;;5043142;28;20278;-67
2023/03/01 02:01:06;;;;;;;6.10;5.50;;;3.30;99.90;;;;;;5037408;28;20282;-67
2023/03/01 02:03:37;;;;;;;6.40;5.80;;;3.30;99.90;;;;;;5040335;28;20298;-68
2023/03/01 02:06:08;;;;;;;6.22;5.72;;;3.30;99.90;;;;;;5039677;28;20198;-67
2023/03/01 02:08:39;;;;;;;5.88;5.38;;;3.20;99.90;;;;;;5040685;28;20223;-68
2023/03/01 02:11:07;;;;;;;6.25;5.78;;;3.30;99.90;;;;;;5040180;28;20283;-68
2023/03/01 02:13:35;;;;;;;6.03;5.50;;;3.30;99.90;;;;;;5042138;28;20246;-67
2023/03/01 02:16:09;;;;;;;6.38;5.88;;;3.20;99.90;;;;;;5052403;28;20191;-68
2023/03/01 02:18:36;;;;;;;5.63;5.20;;;3.20;99.90;;;;;;5054937;28;20195;-68
2023/03/01 02:21:13;;;;;;;6.40;5.90;;;3.20;99.90;;;;;;5057382;28;20240;-68
2023/03/01 02:23:40;;;;;;;5.95;5.45;;;3.20;99.90;;;;;;5055236;28;20219;-67
2023/03/01 02:26:13;;;;;;;6.22;5.68;;;3.20;99.90;;;;;;5053390;28;20233;-68
2023/03/01 02:28:44;;;;;;;6.18;5.57;;;3.20;99.90;;;;;;5044155;28;20207;-68
2023/03/01 02:34:00;;;;;;;5.30;4.90;;;3.20;99.90;;;;;;5042259;28;20335;-67
2023/03/01 02:36:32;;;;;;;5.93;5.43;;;3.20;99.90;;;;;;5038254;28;20286;-67
2023/03/01 02:39:02;;;;;;;5.60;5.20;;;3.20;99.90;;;;;;5035605;28;20277;-67
2023/03/01 02:41:35;;;;;;;5.85;5.35;;;3.10;99.90;;;;;;5042077;28;20286;-67
2023/03/01 02:44:04;;;;;;;5.40;5.00;;;3.10;99.90;;;;;;5039777;28;20233;-67
2023/03/01 02:46:30;;;;;;;5.90;5.40;;;3.10;99.90;;;;;;5042378;28;20282;-67
2023/03/01 02:48:59;;;;;;;5.55;5.05;;;3.10;99.90;;;;;;5038255;28;20242;-67
2023/03/01 02:51:39;;;;;;;6.30;5.80;;;3.10;99.90;;;;;;5041463;28;20234;-67
2023/03/01 02:54:17;;;;;;;5.32;4.93;;;3.10;99.90;;;;;;5040541;28;20373;-67
2023/03/01 02:56:48;;;;;;;5.70;5.30;;;3.10;99.90;;;;;;5036074;28;20283;-67
2023/03/01 02:59:19;;;;;;;5.40;5.00;;;3.10;99.90;;;;;;5038761;28;20195;-68
2023/03/01 03:01:46;;;;;;;5.50;5.10;;;3.10;99.90;;;;;;5042017;28;20290;-67
2023/03/01 03:04:16;;;;;;;4.75;4.45;;;3.10;99.90;;;;;;5038774;28;20247;-68
2023/03/01 03:06:43;;;;;;;5.43;5.00;;;3.10;99.90;;;;;;5041256;28;20191;-67
2023/03/01 03:09:10;;;;;;;5.78;5.18;;;3.10;99.90;;;;;;5041705;28;20287;-67
2023/03/01 03:11:39;;;;;;;5.60;5.20;;;3.10;99.90;;;;;;5040149;28;20308;-67
2023/03/01 03:14:12;;;;;;;5.40;4.90;;;3.10;99.90;;;;;;5042777;28;20731;-67
2023/03/01 03:16:41;;;;;;;5.20;4.80;;;3.00;99.90;;;;;;5040700;28;20282;-68
2023/03/01 03:19:08;;;;;;;5.50;5.10;;;3.00;99.90;;;;;;5042877;28;20330;-67
2023/03/01 03:21:36;;;;;;;5.57;5.13;;;3.00;99.90;;;;;;5042157;28;20227;-67
2023/03/01 03:24:03;;;;;;;5.63;5.13;;;3.00;99.90;;;;;;5040794;28;20303;-67
2023/03/01 03:26:30;;;;;;;5.25;4.85;;;3.00;99.90;;;;;;5041584;28;20230;-67
2023/03/01 03:28:58;;;;;;;5.80;5.40;;;2.90;99.90;;;;;;5040676;28;20286;-67
2023/03/01 03:31:25;;;;;;;5.82;5.43;;;2.90;99.90;;;;;;5040046;28;20290;-67
2023/03/01 03:33:54;;;;;;;5.32;4.93;;;2.90;99.90;;;;;;5037271;28;20313;-67
2023/03/01 03:36:24;;;;;;;5.15;4.75;;;2.90;99.90;;;;;;5041526;28;20276;-67
2023/03/01 03:38:51;;;;;;;6.00;5.45;;;2.80;99.90;;;;;;5041031;28;20298;-67
2023/03/01 03:41:18;;;;;;;4.95;4.65;;;2.80;99.90;;;;;;5045146;28;20650;-67
2023/03/01 03:43:45;;;;;;;5.53;5.03;;;2.80;99.90;;;;;;5038549;28;20310;-67
2023/03/01 03:46:13;;;;;;;5.20;4.70;;;2.80;99.90;;;;;;5038978;28;20283;-67
2023/03/01 03:48:43;;;;;;;4.90;4.50;;;2.90;99.90;;;;;;5038082;28;20663;-67
2023/03/01 03:51:13;;;;;;;6.05;5.60;;;2.90;99.90;;;;;;5042506;28;20201;-67
2023/03/01 03:53:41;;;;;;;5.32;4.93;;;2.80;99.90;;;;;;5038757;28;20265;-67
2023/03/01 03:56:08;;;;;;;4.90;4.57;;;2.80;99.90;;;;;;5039017;28;20308;-67
2023/03/01 03:58:35;;;;;;;5.43;5.03;;;2.80;99.90;;;;;;5040189;28;20234;-67
2023/03/01 04:01:02;;;;;;;5.97;5.45;;;2.80;99.90;;;;;;5037514;28;20282;-67
2023/03/01 04:03:31;;;;;;;5.32;4.82;;;2.80;99.90;;;;;;5037833;28;20298;-66
2023/03/01 04:05:59;;;;;;;5.40;5.00;;;2.80;99.90;;;;;;5041298;28;20234;-67
2023/03/01 04:08:28;;;;;;;7.25;5.20;;;2.70;99.90;;;;;;5043414;28;20624;-67
2023/03/01 04:10:59;;;;;;;5.50;5.10;;;2.70;99.90;;;;;;5038956;28;20314;-66
2023/03/01 04:13:26;;;;;;;5.35;4.95;;;2.70;99.90;;;;;;5036590;28;20730;-68
2023/03/01 04:15:53;;;;;;;4.95;4.55;;;2.70;99.90;;;;;;5041685;28;20309;-68
2023/03/01 04:18:22;;;;;;;6.20;5.57;;;2.70;99.90;;;;;;5036891;28;20898;-67
2023/03/01 04:20:51;;;;;;;5.80;5.30;;;2.60;99.90;;;;;;5040269;28;20222;-67
2023/03/01 04:23:22;;;;;;;5.60;5.20;;;2.50;99.90;;;;;;5040553;28;20226;-67
2023/03/01 04:25:54;;;;;;;5.55;5.13;;;2.40;99.90;;;;;;5041181;28;20205;-68
2023/03/01 04:28:21;;;;;;;6.00;5.50;;;2.40;99.90;;;;;;5039257;28;20199;-67
2023/03/01 04:30:48;;;;;;;5.43;5.03;;;2.40;99.90;;;;;;5043044;28;20191;-67
2023/03/01 04:33:15;;;;;;;5.72;5.22;;;2.40;99.90;;;;;;5040883;28;20307;-67
2023/03/01 04:35:42;;;;;;;4.97;4.60;;;2.50;99.90;;;;;;5042481;28;20299;-67
2023/03/01 04:38:10;;;;;;;4.55;4.25;;;2.50;99.90;;;;;;5042204;28;20226;-67
2023/03/01 04:40:38;;;;;;;5.43;4.93;;;2.50;99.90;;;;;;5041576;28;20249;-67
2023/03/01 04:43:06;;;;;;;5.00;4.70;;;2.50;99.90;;;;;;5038494;28;20299;-67
2023/03/01 04:45:35;;;;;;;4.80;4.50;;;2.50;99.90;;;;;;5040173;28;20287;-67
2023/03/01 04:48:02;;;;;;;4.68;4.38;;;2.50;99.90;;;;;;5039618;28;20231;-67
2023/03/01 04:50:29;;;;;;;4.97;4.57;;;2.50;99.90;;;;;;5040351;28;20280;-67
2023/03/01 04:52:58;;;;;;;4.95;4.65;;;2.50;99.90;;;;;;5041985;28;20278;-67
2023/03/01 04:55:26;;;;;;;5.07;4.57;;;2.50;99.90;;;;;;5036656;28;20712;-67
2023/03/01 04:57:53;;;;;;;4.47;4.18;;;2.40;99.90;;;;;;5043359;28;20195;-67
2023/03/01 05:00:23;;;;;;;5.00;4.60;;;2.40;99.90;;;;;;5041480;28;20200;-67
2023/03/01 05:02:54;;;;;;;4.68;4.38;;;2.40;99.90;;;;;;5036655;28;20668;-67
2023/03/01 05:05:26;;;;;;;5.35;5.00;;;2.40;99.90;;;;;;5043711;28;20966;-67
2023/03/01 05:07:54;;;;;;;5.03;4.63;;;2.40;99.90;;;;;;5042746;28;20676;-66
2023/03/01 05:10:22;;;;;;;5.05;4.65;;;2.40;99.90;;;;;;5041625;28;20290;-67
2023/03/01 05:12:49;;;;;;;5.45;5.05;;;2.40;99.90;;;;;;5039329;28;20282;-67
2023/03/01 05:15:16;;;;;;;6.15;5.65;;;2.40;99.90;;;;;;5036544;28;20293;-67
2023/03/01 05:17:46;;;;;;;5.75;5.35;;;2.40;99.90;;;;;;5041206;28;20223;-67
2023/03/01 05:20:13;;;;;;;5.47;5.07;;;2.30;99.90;;;;;;5036137;28;20195;-67
2023/03/01 05:22:40;;;;;;;6.35;5.95;;;2.40;99.90;;;;;;5038710;28;20285;-67
2023/03/01 05:25:08;;;;;;;8.05;7.45;;;2.40;99.90;;;;;;5039289;28;20701;-67
2023/03/01 05:27:35;;;;;;;7.07;6.47;;;2.40;99.90;;;;;;5035711;28;20203;-67
2023/03/01 05:30:13;;;;;;;6.20;5.80;;;2.30;99.90;;;;;;5036785;28;20733;-66
2023/03/01 05:32:42;;;;;;;5.70;5.30;;;2.30;99.90;;;;;;5036649;28;20230;-67
2023/03/01 05:35:12;;;;;;;5.68;5.28;;;2.30;99.90;;;;;;5038851;28;20211;-67
2023/03/01 05:37:41;;;;;;;5.53;5.13;;;2.30;99.90;;;;;;5039217;28;20924;-67
2023/03/01 05:40:15;;;;;;;4.50;4.20;;;2.30;99.90;;;;;;5035621;28;20670;-67
2023/03/01 05:42:43;;;;;;;5.53;5.03;;;2.30;99.90;;;;;;5039421;28;20203;-67
2023/03/01 05:45:12;;;;;;;5.57;5.15;;;2.30;99.90;;;;;;5042368;28;20318;-67
2023/03/01 05:47:43;;;;;;;5.90;5.43;;;2.30;99.90;;;;;;5039046;28;21166;-67
2023/03/01 05:50:13;;;;;;;5.35;4.95;;;2.40;99.90;;;;;;5041172;28;20194;-67
2023/03/01 05:52:40;;;;;;;5.80;5.32;;;2.40;99.90;;;;;;5041496;28;20268;-67
2023/03/01 05:55:08;;;;;;;5.30;4.90;;;2.40;99.90;;;;;;5036560;28;20314;-67
2023/03/01 05:57:35;;;;;;;4.97;4.63;;;2.30;99.90;;;;;;5039916;28;20290;-67
2023/03/01 06:00:02;;;;;;;5.60;5.20;;;2.20;99.90;;;;;;5039603;28;20290;-67
2023/03/01 06:02:30;;;;;;;5.40;5.00;;;2.20;99.90;;;;;;5042582;28;20192;-67
2023/03/01 06:04:57;;;;;;;5.35;4.95;;;2.30;99.90;;;;;;5037485;28;20211;-67
2023/03/01 06:07:25;;;;;;;4.65;4.35;;;2.30;99.90;;;;;;5041865;28;21128;-67
2023/03/01 06:09:52;;;;;;;5.82;5.43;;;2.30;99.90;;;;;;5042811;28;20250;-67
2023/03/01 06:12:19;;;;;;;5.07;4.68;;;2.30;99.90;;;;;;5040871;28;20621;-67
2023/03/01 06:14:47;;;;;;;5.32;4.82;;;2.40;99.90;;;;;;5043786;28;20301;-68
2023/03/01 06:17:13;;;;;;;5.45;5.05;;;2.40;99.90;;;;;;5041003;28;20198;-67
2023/03/01 06:19:40;;;;;;;5.55;5.05;;;2.50;99.90;;;;;;5041802;28;20286;-67
2023/03/01 06:22:08;;;;;;;5.90;5.50;;;2.50;99.90;;;;;;5045254;28;20222;-67
2023/03/01 06:24:36;;;;;;;5.80;5.30;;;2.60;99.90;;;;;;5043072;28;20276;-67
2023/03/01 06:27:03;;;;;;;5.47;5.07;;;2.70;99.90;;;;;;5041492;28;20226;-67
2023/03/01 06:29:30;;;;;;;6.00;5.50;;;2.80;99.90;;;;;;5037956;28;20226;-67
2023/03/01 06:31:57;;;;;;;4.95;4.65;;;2.80;99.90;;;;;;5041071;28;20202;-67
2023/03/01 06:34:24;;;;;;;5.97;5.57;;;2.90;99.90;;;;;;5036263;28;20218;-68
2023/03/01 06:36:51;;;;;;;5.70;5.20;;;3.00;99.90;;;;;;5042071;28;20288;-68
2023/03/01 06:39:18;;;;;;;5.85;5.35;;;3.00;99.90;;;;;;5043580;28;20294;-68
2023/03/01 06:41:46;;;;;;;5.00;4.60;;;3.10;99.90;;;;;;5043020;28;20234;-68
2023/03/01 06:44:13;;;;;;;6.45;5.95;;;3.10;99.90;;;;;;5044144;28;20309;-68
2023/03/01 06:46:40;;;;;;;5.53;5.13;;;3.20;99.90;;;;;;5042217;28;20195;-68
2023/03/01 06:49:09;;;;;;;5.53;5.03;;;3.20;99.90;;;;;;5039037;28;20634;-67
2023/03/01 06:51:37;;;;;;;5.45;4.95;;;3.30;99.90;;;;;;5039755;28;20191;-67
2023/03/01 06:54:04;;;;;;;5.43;4.97;;;3.30;99.90;;;;;;5047981;28;20868;-67
2023/03/01 06:56:32;;;;;;;5.40;4.90;;;3.40;99.90;;;;;;5044433;28;20313;-67
2023/03/01 06:59:00;;;;;;;5.35;4.95;;;3.40;99.90;;;;;;5044541;28;20322;-67
2023/03/01 07:01:27;;;;;;;4.95;4.65;;;3.50;99.90;;;;;;5039008;28;20291;-67
2023/03/01 07:03:54;;;;;;;6.00;5.55;;;3.50;99.90;;;;;;5037556;28;20659;-68
2023/03/01 07:06:21;;;;;;;5.45;5.05;;;3.60;99.90;;;;;;5039689;28;20274;-67
2023/03/01 07:08:48;;;;;;;5.05;4.65;;;3.60;99.90;;;;;;5038590;28;20285;-67
2023/03/01 07:11:16;;;;;;;5.50;4.90;;;3.70;99.90;;;;;;5043963;28;20238;-67
2023/03/01 07:13:43;;;;;;;5.57;5.15;;;3.80;99.90;;;;;;5042431;28;20250;-67
2023/03/01 07:16:11;;;;;;;5.13;4.53;;;3.90;99.90;;;;;;5037982;28;20293;-68
2023/03/01 07:18:38;;;;;;;5.07;4.68;;;4.10;99.90;;;;;;5036352;28;20245;-67
2023/03/01 07:21:06;;;;;;;4.93;4.55;;;4.20;99.90;;;;;;5038704;28;20290;-67
2023/03/01 07:23:33;;;;;;;5.10;4.70;;;4.30;99.90;;;;;;5036572;28;20223;-67
2023/03/01 07:26:01;;;;;;;5.95;5.45;;;4.40;99.90;;;;;;5038679;28;20816;-68
2023/03/01 07:28:28;;;;;;;7.38;5.40;;;4.50;99.90;;;;;;5034434;28;20701;-68
2023/03/01 07:30:55;;;;;;;6.10;4.90;;;4.60;99.90;;;;;;5038937;28;20276;-68
2023/03/01 07:33:24;;;;;;;5.78;5.38;;;4.80;99.90;;;;;;5031818;28;20310;-68
2023/03/01 07:35:57;;;;;;;5.32;4.93;;;5.00;99.90;;;;;;5034398;28;20326;-68
2023/03/01 07:38:24;;;;;;;5.63;5.22;;;5.20;99.90;;;;;;5036977;28;20202;-68
2023/03/01 07:40:51;;;;;;;5.82;5.35;;;5.30;99.90;;;;;;5040042;28;20281;-69
2023/03/01 07:43:18;;;;;;;8.20;4.95;;;5.70;99.90;;;;;;5037524;28;20309;-69
2023/03/01 07:45:45;;;;;;;5.97;5.47;;;6.30;99.90;;;;;;5036489;28;20280;-68
2023/03/01 07:48:12;;;;;;;6.10;5.60;;;7.00;99.90;;;;;;5038066;28;20289;-69
2023/03/01 07:50:40;;;;;;;6.05;5.45;;;7.80;99.90;;;;;;5038810;28;20303;-70
2023/03/01 07:53:07;;;;;;;8.68;6.35;;;8.60;99.90;;;;;;5038739;28;20279;-73
2023/03/01 07:55:34;;;;;;;6.72;6.13;;;9.20;99.90;;;;;;5036938;28;20273;-72
2023/03/01 07:58:01;;;;;;;7.50;6.00;;;9.40;99.90;;;;;;5038289;28;20229;-71
2023/03/01 08:00:28;;;;;;;6.65;5.97;;;9.40;99.90;;;;;;5038796;28;20282;-72
2023/03/01 08:02:55;;;;;;;6.80;5.63;;;9.50;99.90;;;;;;5037340;28;20195;-74
2023/03/01 08:05:22;;;;;;;6.13;5.53;;;9.60;99.90;;;;;;5041973;28;20221;-71
2023/03/01 08:07:50;;;;;;;5.78;5.00;;;9.70;99.90;;;;;;5044776;28;20206;-71
2023/03/01 08:10:18;;;;;;;5.40;4.90;;;10.00;99.90;;;;;;5039463;28;20223;-72
2023/03/01 08:12:45;;;;;;;6.60;4.85;;;10.30;99.90;;;;;;5044854;28;20736;-71
2023/03/01 08:15:12;;;;;;;7.70;5.43;;;10.40;99.90;;;;;;5040531;28;20242;-72
2023/03/01 08:17:39;;;;;;;5.72;5.15;;;10.10;99.90;;;;;;5039292;28;20741;-71
2023/03/01 08:20:07;;;;;;;6.20;5.70;;;10.10;99.90;;;;;;5037363;28;20290;-75
2023/03/01 08:22:34;;;;;;;5.40;4.93;;;10.30;99.90;;;;;;5045580;28;20202;-73
2023/03/01 08:25:02;;;;;;;5.63;5.22;;;10.30;99.90;;;;;;5037075;28;20720;-72
2023/03/01 08:27:29;;;;;;;5.53;5.03;;;10.00;99.90;;;;;;5033658;28;20738;-71
2023/03/01 08:29:56;;;;;;;5.97;4.80;;;9.40;99.90;;;;;;5043448;28;20245;-71
2023/03/01 08:32:23;;;;;;;5.57;5.07;;;8.90;99.90;;;;;;5033152;28;20257;-72
2023/03/01 08:34:50;;;;;;;4.80;4.40;;;8.40;99.90;;;;;;5039328;28;20743;-73
2023/03/01 08:37:17;;;;;;;5.30;4.80;;;8.10;99.90;;;;;;5037458;28;20306;-72
2023/03/01 08:39:44;;;;;;;5.70;4.97;;;7.90;99.90;;;;;;5036164;28;20226;-71
2023/03/01 08:42:12;;;;;;;5.40;4.90;;;7.90;99.90;;;;;;5035094;28;20766;-71
2023/03/01 08:44:39;;;;;;;5.28;4.78;;;7.90;99.90;;;;;;5036534;28;20306;-70
2023/03/01 08:47:06;;;;;;;5.20;4.70;;;7.90;99.90;;;;;;5038159;28;20614;-72
2023/03/01 08:49:33;;;;;;;5.55;5.05;;;8.10;99.90;;;;;;5033738;28;20289;-72
2023/03/01 08:52:00;;;;;;;4.95;4.55;;;8.40;99.90;;;;;;5034918;28;20554;-72
2023/03/01 08:54:28;;;;;;;6.60;6.00;;;8.90;99.90;;;;;;5032645;28;21238;-73
2023/03/01 08:56:55;;;;;;;5.93;5.13;;;9.30;99.90;;;;;;5038255;28;20629;-71
2023/03/01 08:59:23;;;;;;;6.20;5.60;;;9.60;99.90;;;;;;5033069;28;20282;-73
2023/03/01 09:01:50;;;;;;;9.13;4.95;;;9.80;99.90;;;;;;5036969;28;20234;-72
2023/03/01 09:04:17;;;;;;;6.07;5.47;;;10.00;99.90;;;;;;5036083;28;20246;-73
2023/03/01 09:06:44;;;;;;;8.15;5.03;;;10.40;99.90;;;;;;5037156;28;20952;-71
2023/03/01 09:09:15;;;;;;;7.30;4.90;;;10.40;99.90;;;;;;5037021;28;20282;-69
2023/03/01 09:11:43;;;;;;;5.95;4.82;;;10.00;99.90;;;;;;5033919;28;20199;-70
2023/03/01 09:14:10;;;;;;;4.80;4.40;;;9.50;99.90;;;;;;5037523;28;20261;-70
2023/03/01 09:16:38;;;;;;;5.30;4.47;;;9.30;99.90;;;;;;5037970;28;20247;-70
2023/03/01 09:19:05;;;;;;;7.18;5.18;;;9.20;99.90;;;;;;5035595;28;20253;-70
2023/03/01 09:21:32;;;;;;;5.00;4.50;;;9.20;99.90;;;;;;5034662;28;20286;-71
2023/03/01 09:23:59;;;;;;;5.70;4.63;;;9.00;99.90;;;;;;5038010;28;20257;-69
2023/03/01 09:26:26;;;;;;;5.90;4.72;;;8.80;99.90;;;;;;5033173;28;20819;-70
2023/03/01 09:28:56;;;;;;;4.50;4.10;;;8.60;99.90;;;;;;5033246;28;20624;-71
2023/03/01 09:31:24;;;;;;;7.13;4.90;;;8.50;99.90;;;;;;5031505;28;20721;-71
2023/03/01 09:33:54;;;;;;;4.72;4.25;;;8.40;99.90;;;;;;5034161;28;20246;-70
2023/03/01 09:36:23;;;;;;;5.28;4.85;;;8.60;99.90;;;;;;5031476;28;20221;-70
2023/03/01 09:38:51;;;;;;;4.57;4.18;;;8.90;99.90;;;;;;5033924;28;20199;-70
2023/03/01 09:41:45;;;;;;;5.40;4.90;;;9.00;99.90;;;;;;5031371;28;20198;-70
2023/03/01 09:44:26;;;;;;;4.57;4.18;;;9.00;99.90;;;;;;5029088;28;20241;-71
2023/03/01 09:46:54;;;;;;;5.30;4.80;;;9.10;99.90;;;;;;5034952;28;20222;-71
2023/03/01 09:49:26;;;;;;;5.50;5.00;;;9.00;99.90;;;;;;5035494;28;20274;-69
2023/03/01 09:51:59;;;;;;;6.30;5.03;;;9.70;99.90;;;;;;5035858;28;20294;-71
2023/03/01 09:54:27;;;;;;;6.28;5.35;;;10.00;99.90;;;;;;5032823;28;20306;-74
2023/03/01 09:57:12;;;;;;;5.80;5.20;;;10.10;99.90;;;;;;5032940;28;21197;-70
2023/03/01 09:59:50;;;;;;;5.38;4.88;;;10.00;99.90;;;;;;5035052;28;20733;-70
2023/03/01 10:02:27;;;;;;;5.32;4.82;;;10.20;99.90;;;;;;5034749;28;20306;-70
2023/03/01 10:05:04;;;;;;;5.75;4.90;;;10.60;99.90;;;;;;5035321;28;20299;-71
2023/03/01 10:07:40;;;;;;;4.95;4.55;;;10.80;99.90;;;;;;5033148;28;20291;-72
2023/03/01 10:10:09;;;;;;;4.68;4.28;;;10.70;99.90;;;;;;5029247;28;20233;-69
2023/03/01 10:12:40;;;;;;;4.85;4.45;;;10.80;99.90;;;;;;5034937;28;20289;-70
2023/03/01 10:15:12;;;;;;;11.55;4.18;;;10.80;99.90;;;;;;5030218;28;20309;-71
2023/03/01 10:17:45;;;;;;;10.40;4.38;;;11.20;99.90;;;;;;5028751;28;20283;-71
2023/03/01 10:20:21;;;;;;;5.60;4.70;;;11.60;99.90;;;;;;5035571;28;20291;-70
2023/03/01 10:22:50;;;;;;;4.57;4.15;;;11.50;99.90;;;;;;5036337;28;20281;-72
2023/03/01 10:25:24;;;;;;;6.47;4.50;;;11.50;99.90;;;;;;5034153;28;20281;-72
2023/03/01 10:27:54;;;;;;;5.10;4.65;;;11.60;99.90;;;;;;5029244;28;20286;-70
2023/03/01 10:30:23;;;;;;;4.35;3.97;;;11.50;99.90;;;;;;5032247;28;20289;-73
2023/03/01 10:32:53;;;;;;;7.82;4.43;;;11.10;99.90;;;;;;5030157;28;20697;-72
2023/03/01 10:35:24;;;;;;;4.63;4.22;;;11.00;99.90;;;;;;5040941;28;20215;-72
2023/03/01 10:38:06;;;;;;;4.53;4.13;;;11.00;99.90;;;;;;5038431;28;20306;-74
2023/03/01 10:40:35;;;;;;;5.03;4.50;;;11.00;99.90;;;;;;5056170;22;20309;-76
2023/03/01 10:43:05;;;;;;;5.50;4.45;;;10.90;99.90;;;;;;5024575;28;20201;-76
2023/03/01 10:45:35;;;;;;;5.03;4.63;;;11.10;99.90;;;;;;5040565;28;20708;-75
2023/03/01 10:48:15;;;;;;;5.10;4.60;;;11.20;99.90;;;;;;5040890;28;20282;-74
2023/03/01 10:50:45;;;;;;;4.75;4.35;;;11.40;99.90;;;;;;5023318;28;20291;-76
2023/03/01 10:53:29;;;;;;;5.15;4.65;;;11.50;99.90;;;;;;5020047;28;20269;-72
2023/03/01 10:56:02;;;;;;;4.60;4.15;;;11.30;99.90;;;;;;5026432;28;20223;-81
2023/03/01 10:58:30;;;;;;;4.85;4.43;;;11.30;99.90;;;;;;5024630;28;20864;-77
2023/03/01 11:00:58;;;;;;;4.93;4.50;;;11.60;99.90;;;;;;5024001;28;20195;-80
2023/03/01 11:03:27;;;;;;;5.63;5.03;;;11.70;99.90;;;;;;5024255;28;20235;-77
2023/03/01 11:06:02;;;;;;;4.75;4.25;;;12.30;99.90;;;;;;5002578;28;20200;-75
2023/03/01 11:08:41;;;;;;;4.65;4.25;;;13.00;99.90;;;;;;5023945;28;20223;-76
2023/03/01 11:11:23;;;;;;;4.97;4.47;;;13.60;99.90;;;;;;5005456;28;20278;-75
2023/03/01 11:13:56;;;;;;;4.63;4.07;;;13.30;99.90;;;;;;5025610;28;20223;-77
2023/03/01 11:16:32;;;;;;;6.45;4.75;;;12.70;99.90;;;;;;5021711;28;20208;-76
2023/03/01 11:19:02;;;;;;;4.60;4.20;;;12.20;99.90;;;;;;5023812;28;20212;-76
2023/03/01 11:21:35;;;;;;;4.45;4.00;;;11.80;99.90;;;;;;5014013;28;20188;-77
2023/03/01 11:24:05;;;;;;;3.80;3.50;;;11.40;99.90;;;;;;5036443;28;20196;-79
2023/03/01 11:26:39;;;;;;;5.05;4.53;;;11.20;99.90;;;;;;5030285;28;20219;-77
2023/03/01 11:29:17;;;;;;;4.40;4.00;;;11.10;99.90;;;;;;5030484;28;20216;-77
2023/03/01 11:31:48;;;;;;;4.88;4.05;;;11.00;99.90;;;;;;5026481;28;20216;-77
2023/03/01 11:34:24;;;;;;;5.28;4.78;;;10.70;99.90;;;;;;5028199;28;20230;-81
2023/03/01 11:36:58;;;;;;;4.40;4.00;;;10.60;99.90;;;;;;5009698;28;20680;-79
2023/03/01 11:39:32;;;;;;;4.97;4.18;;;10.40;99.90;;;;;;5022134;28;20231;-78
2023/03/01 11:42:07;;;;;;;4.35;3.95;;;10.40;99.90;;;;;;5021629;28;20295;-80
2023/03/01 11:44:38;;;;;;;6.28;4.18;;;10.40;99.90;;;;;;5022350;28;20199;-78
2023/03/01 11:47:17;;;;;;;5.13;4.57;;;10.30;99.90;;;;;;5023851;28;20192;-77
2023/03/01 11:50:07;;;;;;;5.15;4.38;;;10.30;99.90;;;;;;5021319;28;20298;-78
2023/03/01 11:52:49;;;;;;;6.22;4.40;;;10.20;99.90;;;;;;5023991;28;20230;-76
2023/03/01 11:55:31;;;;;;;6.97;4.97;;;10.10;99.90;;;;;;5023712;28;20215;-76
2023/03/01 11:58:21;;;;;;;7.20;5.03;;;10.10;99.90;;;;;;5022724;28;20501;-77
2023/03/01 12:01:10;;;;;;;6.15;4.95;;;10.00;99.90;;;;;;5025375;28;20196;-78
2023/03/01 12:04:07;;;;;;;4.47;4.07;;;10.00;99.90;;;;;;5007168;28;20275;-77
2023/03/01 12:06:59;;;;;;;4.15;3.72;;;9.90;99.90;;;;;;4979212;28;20414;-75
2023/03/01 12:09:49;;;;;;;5.95;4.30;;;10.00;99.90;;;;;;5020268;28;20310;-77
2023/03/01 12:12:37;;;;;;;4.78;4.28;;;10.00;99.90;;;;;;5021990;28;20246;-78
2023/03/01 12:15:40;;;;;;;4.55;4.13;;;10.10;99.90;;;;;;5001089;28;20914;-78
2023/03/01 12:18:22;;;;;;;4.30;3.90;;;10.10;99.90;;;;;;5022333;28;20294;-78
2023/03/01 12:21:03;;;;;;;4.68;3.97;;;10.10;99.90;;;;;;5022322;28;20278;-78
2023/03/01 12:24:05;;;;;;;3.75;3.45;;;10.20;99.90;;;;;;5020430;28;20418;-75
2023/03/01 12:26:36;;;;;;;4.13;3.47;;;10.30;99.90;;;;;;5016850;28;20241;-78
2023/03/01 12:29:25;;;;;;;4.05;3.75;;;10.50;99.90;;;;;;5022129;28;20670;-76
2023/03/01 12:32:15;;;;;;;4.70;3.80;;;10.50;99.90;;;;;;5001017;28;20225;-76
2023/03/01 12:35:24;;;;;;;6.03;4.60;;;10.60;99.90;;;;;;5018376;28;20278;-79
2023/03/01 12:38:00;;;;;;;4.72;4.15;;;10.70;99.90;;;;;;5020130;28;20321;-76
2023/03/01 12:40:41;;;;;;;4.45;4.05;;;10.70;99.90;;;;;;5010212;28;21043;-76
2023/03/01 12:43:22;;;;;;;4.20;3.80;;;10.80;99.90;;;;;;5005633;28;20289;-78
2023/03/01 12:46:02;;;;;;;6.15;4.40;;;11.00;99.90;;;;;;5001859;28;20207;-78
2023/03/01 12:48:40;;;;;;;3.97;3.63;;;11.10;99.90;;;;;;5001871;28;20199;-77
2023/03/01 12:51:11;;;;;;;3.83;3.53;;;11.30;99.90;;;;;;5021740;28;20287;-75
2023/03/01 12:53:42;;;;;;;4.28;3.88;;;11.50;99.90;;;;;;5005047;28;20199;-76
2023/03/01 12:56:13;;;;;;;4.10;3.80;;;11.60;99.90;;;;;;5018715;28;20295;-74
2023/03/01 12:58:52;;;;;;;4.68;4.07;;;11.60;99.90;;;;;;5002670;28;20227;-77
2023/03/01 13:01:28;;;;;;;4.10;3.70;;;11.40;99.90;;;;;;5019446;28;20294;-79
2023/03/01 13:04:16;;;;;;;3.63;3.33;;;11.40;99.90;;;;;;5020683;28;20298;-77
2023/03/01 13:06:53;;;;;;;3.00;2.80;;;11.40;99.90;;;;;;5002180;28;20204;-79
2023/03/01 13:09:30;;;;;;;3.22;2.92;;;11.50;99.90;;;;;;5002063;28;20245;-76
2023/03/01 13:11:57;;;;;;;3.88;3.20;;;11.40;99.90;;;;;;5004409;28;20204;-75
2023/03/01 13:14:46;;;;;;;3.47;3.17;;;11.40;99.90;;;;;;5002933;28;20257;-74